Time;durP1;ratioP1;P1;durP2;ratioP2;P2;SDS_P1;SDS_P2;PMS_P1;PMS_P2;Temp;Humidity;BMP_temperature;BMP_pressure;BME280_temperature;BME280_humidity;BME280_pressure;Samples;Min_cycle;Max_cycle;Signal;HPM_P1;HPM_P2
2022/11/27 00:00:33;;;;;;;;;15.50;12.75;;;;;9.51;68.59;102340.75;2373916;28;47087;-85
2022/11/27 00:01:43;;;;;;;;;17.00;15.50;;;;;9.51;68.57;102346.00;2370836;28;45266;-85
2022/11/27 00:02:54;;;;;;;;;16.75;12.50;;;;;9.50;68.71;102346.91;2381219;28;46254;-85
2022/11/27 00:04:05;;;;;;;;;27.75;16.25;;;;;9.51;68.40;102346.00;2384961;28;45144;-86
2022/11/27 00:05:16;;;;;;;;;15.75;15.25;;;;;9.50;68.59;102341.66;2374897;28;48416;-86
2022/11/27 00:06:28;;;;;;;;;19.00;15.50;;;;;9.49;68.36;102342.50;2375067;28;45248;-86
2022/11/27 00:07:38;;;;;;;;;14.00;10.75;;;;;9.50;68.38;102336.41;2365397;28;47355;-86
2022/11/27 00:08:49;;;;;;;;;16.75;12.00;;;;;9.51;68.58;102340.75;2366001;28;44732;-85
2022/11/27 00:10:00;;;;;;;;;16.50;14.25;;;;;9.49;68.67;102332.00;2372391;28;47293;-86
2022/11/27 00:11:13;;;;;;;;;14.25;13.50;;;;;9.52;68.38;102345.13;2377801;28;45449;-85
2022/11/27 00:12:23;;;;;;;;;14.50;14.00;;;;;9.52;68.42;102348.66;2383548;28;48162;-85
2022/11/27 00:13:35;;;;;;;;;17.00;14.75;;;;;9.51;68.76;102340.75;2381424;28;45343;-85
2022/11/27 00:14:46;;;;;;;;;16.50;15.00;;;;;9.51;68.07;102336.38;2366614;28;47812;-86
2022/11/27 00:15:57;;;;;;;;;13.00;13.00;;;;;9.52;68.49;102342.50;2368252;28;45486;-85
2022/11/27 00:17:07;;;;;;;;;18.75;16.00;;;;;9.53;68.29;102344.28;2377301;28;46342;-85
2022/11/27 00:18:17;;;;;;;;;14.00;12.00;;;;;9.52;68.58;102337.25;2384873;28;45312;-85
2022/11/27 00:19:28;;;;;;;;;15.00;12.50;;;;;9.52;68.41;102332.00;2384717;28;46379;-86
2022/11/27 00:20:38;;;;;;;;;17.25;14.00;;;;;9.53;68.30;102336.41;2384766;28;45208;-86
2022/11/27 00:21:49;;;;;;;;;21.00;15.25;;;;;9.51;68.52;102332.88;2377077;28;48312;-86
2022/11/27 00:22:59;;;;;;;;;17.75;16.75;;;;;9.51;68.37;102331.13;2386962;28;45334;-86
2022/11/27 00:24:10;;;;;;;;;15.00;13.50;;;;;9.52;68.59;102326.75;2374642;28;48036;-85
2022/11/27 00:25:21;;;;;;;;;15.75;15.25;;;;;9.50;68.04;102324.16;2371886;28;45501;-86
2022/11/27 00:26:32;;;;;;;;;14.00;12.75;;;;;9.49;68.30;102317.13;2377439;28;46090;-86
2022/11/27 00:27:42;;;;;;;;;4.00;2.25;;;;;9.48;68.04;102314.53;2383522;28;45311;-86
2022/11/27 00:28:53;;;;;;;;;13.75;12.50;;;;;9.50;68.33;102320.66;2381552;28;46306;-85
2022/11/27 00:30:04;;;;;;;;;9.50;9.50;;;;;9.48;68.42;102325.03;2379907;28;45257;-86
2022/11/27 00:31:17;;;;;;;;;20.50;15.00;;;;;9.49;68.07;102321.50;2384504;28;45585;-85
2022/11/27 00:32:28;;;;;;;;;14.25;11.50;;;;;9.48;68.54;102320.66;2384988;28;45454;-85
2022/11/27 00:33:38;;;;;;;;;15.50;13.25;;;;;9.48;68.08;102311.91;2383685;28;46477;-85
2022/11/27 00:34:48;;;;;;;;;14.75;12.25;;;;;9.47;67.97;102308.41;2374793;28;44696;-85
2022/11/27 00:36:03;;;;;;;;;13.75;13.00;;;;;9.48;68.45;102311.91;2377456;28;45359;-85
2022/11/27 00:37:14;;;;;;;;;17.00;15.00;;;;;9.47;68.42;102302.28;2384414;28;45829;-86
2022/11/27 00:38:24;;;;;;;;;15.00;13.50;;;;;9.47;68.30;102305.78;2384636;28;46183;-85
2022/11/27 00:39:34;;;;;;;;;11.25;9.00;;;;;9.48;68.32;102298.78;2384653;28;44565;-86
2022/11/27 00:40:46;;;;;;;;;17.00;16.00;;;;;9.49;68.34;102297.88;2374538;28;46932;-85
2022/11/27 00:41:56;;;;;;;;;16.25;13.25;;;;;9.49;68.12;102296.16;2374948;28;45200;-85
2022/11/27 00:43:07;;;;;;;;;16.25;13.00;;;;;9.50;68.43;102297.03;2384442;28;46453;-86
2022/11/27 00:44:17;;;;;;;;;15.50;13.25;;;;;9.49;68.44;102296.16;2383919;28;44831;-85
2022/11/27 00:45:27;;;;;;;;;19.25;15.75;;;;;9.48;68.38;102299.66;2374510;28;46982;-85
2022/11/27 00:46:40;;;;;;;;;14.50;13.50;;;;;9.50;68.38;102286.53;2375006;28;45192;-85
2022/11/27 00:47:50;;;;;;;;;16.25;15.25;;;;;9.51;68.39;102290.88;2383288;28;45408;-86
2022/11/27 00:49:03;;;;;;;;;12.00;11.00;;;;;9.51;68.19;102291.75;2384612;28;45398;-85
2022/11/27 00:50:13;;;;;;;;;15.50;13.50;;;;;9.52;68.32;102284.75;2374345;28;47306;-85
2022/11/27 00:51:24;;;;;;;;;17.75;16.25;;;;;9.51;68.28;102289.13;2377522;28;44717;-85
2022/11/27 00:52:35;;;;;;;;;17.00;14.75;;;;;9.52;68.41;102290.00;2383351;28;46654;-85
2022/11/27 00:53:46;;;;;;;;;14.50;14.00;;;;;9.54;68.10;102290.88;2373902;28;44634;-86
2022/11/27 00:54:56;;;;;;;;;12.00;12.00;;;;;9.52;68.28;102287.38;2377241;28;45464;-86
2022/11/27 00:56:07;;;;;;;;;15.00;11.75;;;;;9.54;68.15;102283.00;2374560;28;45288;-85
2022/11/27 00:57:17;;;;;;;;;15.50;13.50;;;;;9.52;68.06;102288.28;2365169;28;47297;-86
2022/11/27 00:58:29;;;;;;;;;13.75;13.00;;;;;9.53;68.28;102283.91;2376669;28;45236;-85
2022/11/27 00:59:39;;;;;;;;;16.00;15.00;;;;;9.51;68.20;102278.63;2377744;28;45398;-86
2022/11/27 01:01:00;;;;;;;;;17.00;12.75;;;;;9.52;67.88;102276.88;2375285;28;45262;-85
2022/11/27 01:02:11;;;;;;;;;19.00;15.75;;;;;9.53;68.15;102281.28;2381582;28;45555;-85
2022/11/27 01:03:22;;;;;;;;;16.25;14.25;;;;;9.52;68.16;102275.16;2384633;28;44605;-85
2022/11/27 01:04:32;;;;;;;;;14.25;14.25;;;;;9.52;68.02;102274.25;2384313;28;45411;-86
2022/11/27 01:05:42;;;;;;;;;18.75;15.00;;;;;9.52;68.38;102272.53;2383601;28;46472;-86
2022/11/27 01:06:53;;;;;;;;;18.25;14.00;;;;;9.53;67.95;102274.25;2383861;28;45641;-86
2022/11/27 01:08:03;;;;;;;;;22.00;14.00;;;;;9.53;67.90;102268.16;2384504;28;45181;-86
2022/11/27 01:09:14;;;;;;;;;15.75;12.75;;;;;9.54;67.74;102264.63;2384478;28;45284;-86
2022/11/27 01:10:24;;;;;;;;;15.50;12.00;;;;;9.54;68.03;102260.25;2384416;28;45214;-86
2022/11/27 01:11:35;;;;;;;;;18.50;14.25;;;;;9.52;68.21;102263.75;2374341;28;48016;-86
2022/11/27 01:12:48;;;;;;;;;15.75;14.00;;;;;9.50;67.76;102269.03;2374214;28;45241;-86
2022/11/27 01:14:03;;;;;;;;;16.25;14.00;;;;;9.52;67.97;102269.00;2376068;28;45394;-86
2022/11/27 01:15:14;;;;;;;;;15.25;13.75;;;;;9.50;67.88;102265.53;2384578;28;45245;-85
2022/11/27 01:16:27;;;;;;;;;14.75;14.00;;;;;9.49;68.22;102263.78;2383889;28;45332;-85
2022/11/27 01:17:37;;;;;;;;;13.00;11.50;;;;;9.51;68.03;102267.25;2384566;28;45230;-86
2022/11/27 01:18:49;;;;;;;;;13.50;11.50;;;;;9.50;67.98;102271.66;2383493;28;46888;-86
2022/11/27 01:20:00;;;;;;;;;15.50;13.00;;;;;9.50;67.84;102265.53;2383821;28;44732;-86
2022/11/27 01:21:12;;;;;;;;;12.50;11.75;;;;;9.49;68.27;102264.66;2381089;28;46683;-85
2022/11/27 01:22:22;;;;;;;;;16.25;12.50;;;;;9.50;68.21;102266.41;2371496;28;45218;-86
2022/11/27 01:23:33;;;;;;;;;14.75;12.50;;;;;9.51;67.96;102270.75;2367741;28;47731;-86
2022/11/27 01:24:43;;;;;;;;;14.75;11.25;;;;;9.50;68.08;102265.53;2373362;28;45188;-86
2022/11/27 01:25:53;;;;;;;;;15.25;12.50;;;;;9.50;68.13;102262.91;2376980;28;46120;-85
2022/11/27 01:27:04;;;;;;;;;14.50;13.00;;;;;9.50;68.15;102260.28;2373930;28;45309;-86
2022/11/27 01:28:16;;;;;;;;;15.00;12.25;;;;;9.50;68.02;102258.53;2364898;29;47042;-86
2022/11/27 01:29:26;;;;;;;;;15.50;14.75;;;;;9.50;68.28;102255.91;2373189;28;45344;-86
2022/11/27 01:30:37;;;;;;;;;8.75;7.00;;;;;9.50;68.02;102262.91;2371338;28;48146;-86
2022/11/27 01:31:48;;;;;;;;;15.00;13.00;;;;;9.48;67.86;102256.78;2377155;28;45559;-86
2022/11/27 01:32:58;;;;;;;;;15.25;12.25;;;;;9.48;67.76;102256.78;2374286;28;47092;-85
2022/11/27 01:34:14;;;;;;;;;13.25;12.00;;;;;9.48;68.15;102259.41;2374522;28;45183;-85
2022/11/27 01:35:24;;;;;;;;;12.75;10.75;;;;;9.46;67.98;102259.41;2367971;28;47139;-85
2022/11/27 01:36:35;;;;;;;;;16.00;13.25;;;;;9.43;67.56;102249.78;2373948;28;45248;-85
2022/11/27 01:37:45;;;;;;;;;14.50;13.50;;;;;9.41;67.87;102245.41;2374272;28;48145;-85
2022/11/27 01:38:56;;;;;;;;;14.75;12.75;;;;;9.40;68.19;102239.31;2374231;28;45323;-85
2022/11/27 01:40:07;;;;;;;;;14.25;11.50;;;;;9.41;68.09;102245.41;2376534;28;45510;-85
2022/11/27 01:41:24;;;;;;;;;14.50;13.75;;;;;9.39;67.77;102247.19;2383076;28;45496;-85
2022/11/27 01:42:35;;;;;;;;;12.25;12.00;;;;;9.37;67.89;102238.44;2382453;28;48045;-85
2022/11/27 01:43:52;;;;;;;;;10.75;9.00;;;;;9.39;68.05;102247.19;2381070;28;45208;-86
2022/11/27 01:45:02;;;;;;;;;13.25;11.00;;;;;9.37;67.70;102246.31;2377001;28;45465;-86
2022/11/27 01:46:27;;;;;;;;;13.00;11.25;;;;;9.37;67.89;102244.56;2384149;28;45288;-86
2022/11/27 01:47:44;;;;;;;;;14.50;12.50;;;;;9.38;68.02;102234.97;2374123;28;47447;-86
2022/11/27 01:49:19;;;;;;;;;9.50;8.75;;;;;9.38;68.03;102230.59;2377987;28;44642;-86
2022/11/27 01:50:36;;;;;;;;;10.75;10.75;;;;;9.38;68.16;102227.97;2364318;28;45429;-85
2022/11/27 01:52:10;;;;;;;;;12.00;10.25;;;;;9.37;68.21;102231.44;2379301;28;44542;-85
2022/11/27 01:53:21;;;;;;;;;15.50;10.25;;;;;9.37;68.23;102238.44;2373305;28;48078;-85
2022/11/27 01:54:38;;;;;;;;;13.25;12.00;;;;;9.37;68.09;102231.44;2367410;28;45439;-86
2022/11/27 01:55:54;;;;;;;;;15.50;12.25;;;;;9.36;68.43;102227.06;2375340;28;46206;-85
2022/11/27 01:57:12;;;;;;;;;13.25;11.25;;;;;9.36;68.24;102232.31;2381926;28;44947;-85
2022/11/27 01:58:27;;;;;;;;;11.25;11.25;;;;;9.36;68.13;102232.31;2383860;28;45504;-86
2022/11/27 01:59:38;;;;;;;;;12.00;12.00;;;;;9.34;67.88;102231.47;2384322;28;44557;-85
2022/11/27 02:00:49;;;;;;;;;14.75;13.00;;;;;9.35;68.14;102230.59;2383872;28;45434;-86
2022/11/27 02:02:01;;;;;;;;;13.75;12.50;;;;;9.35;67.87;102233.22;2383978;28;45299;-86
2022/11/27 02:03:12;;;;;;;;;14.00;10.75;;;;;9.36;68.03;102234.94;2383846;28;48261;-86
2022/11/27 02:04:22;;;;;;;;;16.00;12.75;;;;;9.34;68.04;102232.34;2383833;28;45311;-86
2022/11/27 02:05:33;;;;;;;;;11.75;10.00;;;;;9.36;68.28;102221.81;2373583;28;47159;-85
2022/11/27 02:06:44;;;;;;;;;10.25;9.50;;;;;9.36;68.38;102224.44;2367480;28;45254;-86
2022/11/27 02:08:04;;;;;;;;;14.75;12.00;;;;;9.36;67.94;102227.06;2367414;28;48423;-85
2022/11/27 02:09:15;;;;;;;;;10.25;8.00;;;;;9.37;68.33;102220.06;2378378;28;45296;-86
2022/11/27 02:10:49;;;;;;;;;15.25;11.75;;;;;9.40;68.16;102225.31;2373800;28;47201;-86
2022/11/27 02:12:14;;;;;;;;;11.75;8.00;;;;;9.37;68.47;102218.31;2380208;28;45426;-85
2022/11/27 02:13:47;;;;;;;;;13.50;11.00;;;;;9.40;68.03;102220.94;2383836;28;45240;-86
2022/11/27 02:15:19;;;;;;;;;13.50;9.50;;;;;9.40;68.33;102206.94;2374081;28;45459;-86
2022/11/27 02:16:54;;;;;;;;;9.75;9.00;;;;;9.41;68.41;102213.94;2364586;28;47500;-85
2022/11/27 02:18:09;;;;;;;;;14.50;9.50;;;;;9.41;68.22;102208.69;2376074;28;44639;-85
2022/11/27 02:19:48;;;;;;;;;14.50;11.75;;;;;9.40;68.13;102215.69;2383555;28;45466;-86
2022/11/27 02:21:13;;;;;;;;;14.25;10.25;;;;;9.39;68.24;102216.56;2384017;28;45133;-85
2022/11/27 02:23:01;;;;;;;;;10.75;10.50;;;;;9.39;68.00;102220.94;2383959;28;45333;-86
2022/11/27 02:24:42;;;;;;;;;12.50;10.25;;;;;9.37;68.07;102218.31;2383450;28;45327;-85
2022/11/27 02:26:19;;;;;;;;;11.00;9.00;;;;;9.38;68.10;102219.22;2377013;28;46429;-85
2022/11/27 02:27:29;;;;;;;;;9.75;7.00;;;;;9.36;68.28;102211.31;2382161;28;45248;-86
2022/11/27 02:29:01;;;;;;;;;13.75;8.75;;;;;9.37;68.27;102215.72;2383334;28;45489;-85
2022/11/27 02:30:11;;;;;;;;;4.75;4.75;;;;;9.36;68.01;102221.81;2383986;28;45216;-85
2022/11/27 02:31:37;;;;;;;;;14.00;12.00;;;;;9.37;68.00;102215.72;2383646;28;45353;-86
2022/11/27 02:32:59;;;;;;;;;16.50;10.75;;;;;9.36;68.20;102211.31;2383987;28;45141;-86
2022/11/27 02:34:21;;;;;;;;;11.25;9.00;;;;;9.38;67.84;102224.47;2373758;28;47091;-86
2022/11/27 02:35:46;;;;;;;;;12.50;10.75;;;;;9.38;68.00;102220.09;2378116;28;44766;-85
2022/11/27 02:37:15;;;;;;;;;10.50;9.50;;;;;9.41;68.21;102216.56;2380778;28;45265;-86
2022/11/27 02:38:36;;;;;;;;;11.75;8.75;;;;;9.43;68.28;102213.03;2374301;28;45216;-85
2022/11/27 02:40:03;;;;;;;;;8.75;8.00;;;;;9.44;68.42;102219.16;2374354;28;46432;-85
2022/11/27 02:41:21;;;;;;;;;9.50;9.25;;;;;9.44;68.20;102213.91;2364918;29;44626;-85
2022/11/27 02:42:38;;;;;;;;;10.25;10.00;;;;;9.44;67.99;102212.19;2375491;28;46294;-86
2022/11/27 02:43:50;;;;;;;;;12.50;9.25;;;;;9.45;67.87;102210.44;2375717;28;45408;-86
2022/11/27 02:45:07;;;;;;;;;8.50;8.50;;;;;9.45;67.76;102208.69;2379060;28;45409;-85
2022/11/27 02:46:19;;;;;;;;;13.50;11.00;;;;;9.46;67.88;102209.53;2383900;28;44709;-85
2022/11/27 02:47:31;;;;;;;;;12.50;9.25;;;;;9.47;68.14;102207.78;2383814;28;45408;-86
2022/11/27 02:48:46;;;;;;;;;9.00;6.00;;;;;9.48;68.18;102205.19;2379339;28;45267;-86
2022/11/27 02:49:59;;;;;;;;;10.00;10.00;;;;;9.50;68.16;102210.41;2378961;28;46563;-86
2022/11/27 02:51:12;;;;;;;;;8.50;7.00;;;;;9.49;68.36;102204.28;2383752;28;44672;-86
2022/11/27 02:52:25;;;;;;;;;12.75;9.50;;;;;9.51;67.87;102202.50;2382977;28;46739;-85
2022/11/27 02:53:45;;;;;;;;;11.50;10.00;;;;;9.51;68.17;102202.50;2372806;28;45473;-85
2022/11/27 02:55:00;;;;;;;;;12.25;10.00;;;;;9.51;67.68;102199.00;2377802;28;46467;-86
2022/11/27 02:56:16;;;;;;;;;12.00;11.00;;;;;9.50;67.79;102194.66;2383957;28;45458;-86
2022/11/27 02:57:28;;;;;;;;;11.00;10.00;;;;;9.45;67.49;102192.06;2383194;28;45497;-86
2022/11/27 02:58:40;;;;;;;;;11.50;9.00;;;;;9.42;67.70;102192.06;2376488;28;45372;-85
2022/11/27 02:59:55;;;;;;;;;10.25;8.50;;;;;9.44;67.89;102196.44;2368161;28;48152;-85
2022/11/27 03:01:07;;;;;;;;;12.25;9.00;;;;;9.44;68.36;102185.94;2369883;28;45378;-85
2022/11/27 03:02:22;;;;;;;;;12.75;11.25;;;;;9.45;68.38;102177.19;2373715;28;47283;-85
2022/11/27 03:03:41;;;;;;;;;10.00;8.75;;;;;9.45;67.87;102174.56;2377389;28;45349;-85
2022/11/27 03:04:56;;;;;;;;;9.50;8.00;;;;;9.45;68.11;102174.56;2383663;28;45437;-85
2022/11/27 03:06:13;;;;;;;;;10.25;10.00;;;;;9.46;67.96;102170.16;2383754;28;45195;-86
2022/11/27 03:07:40;;;;;;;;;10.50;10.00;;;;;9.49;68.17;102169.28;2383682;28;45514;-85
2022/11/27 03:09:01;;;;;;;;;12.50;10.00;;;;;9.48;67.86;102167.56;2373276;28;44748;-85
2022/11/27 03:10:28;;;;;;;;;11.00;11.00;;;;;9.48;68.05;102165.81;2364356;29;47549;-85
2022/11/27 03:11:39;;;;;;;;;11.00;11.00;;;;;9.48;67.73;102172.81;2373349;28;45206;-85
2022/11/27 03:12:50;;;;;;;;;8.50;8.00;;;;;9.47;68.00;102171.03;2366543;28;47996;-85
2022/11/27 03:14:05;;;;;;;;;12.75;7.25;;;;;9.48;67.77;102173.69;2375752;28;44700;-85
2022/11/27 03:15:16;;;;;;;;;11.25;8.00;;;;;9.47;68.08;102169.31;2382118;28;46524;-86
2022/11/27 03:16:51;;;;;;;;;10.25;8.50;;;;;9.48;68.07;102163.19;2383790;28;45173;-85
2022/11/27 03:18:23;;;;;;;;;11.25;9.25;;;;;9.49;68.26;102162.28;2375197;28;47645;-85
2022/11/27 03:19:51;;;;;;;;;10.25;8.75;;;;;9.51;68.01;102167.50;2381147;28;45259;-85
2022/11/27 03:21:31;;;;;;;;;10.50;8.00;;;;;9.52;68.08;102161.41;2385326;28;45349;-86
2022/11/27 03:22:42;;;;;;;;;10.25;10.25;;;;;9.51;68.15;102157.91;2368415;28;45398;-85
2022/11/27 03:23:52;;;;;;;;;9.75;9.00;;;;;9.52;67.53;102158.78;2374430;28;47313;-85
2022/11/27 03:25:03;;;;;;;;;9.00;9.00;;;;;9.51;67.89;102159.63;2376979;28;45461;-85
2022/11/27 03:26:13;;;;;;;;;11.75;9.25;;;;;9.51;68.07;102167.50;2384386;28;46130;-86
2022/11/27 03:27:31;;;;;;;;;11.50;10.25;;;;;9.51;68.02;102152.63;2374716;28;44734;-85
2022/11/27 03:28:44;;;;;;;;;9.50;8.00;;;;;9.51;67.95;102159.63;2385426;28;45461;-85
2022/11/27 03:29:58;;;;;;;;;8.00;8.00;;;;;9.52;68.11;102156.16;2381249;28;44724;-85
2022/11/27 03:31:09;;;;;;;;;12.75;10.00;;;;;9.54;68.48;102157.00;2377946;28;47223;-86
2022/11/27 03:32:19;;;;;;;;;12.00;10.00;;;;;9.52;68.06;102149.16;2382118;28;45283;-86
2022/11/27 03:33:30;;;;;;;;;12.50;10.75;;;;;9.53;67.72;102152.66;2381689;28;45307;-85
2022/11/27 03:34:41;;;;;;;;;12.00;9.50;;;;;9.52;67.98;102137.78;2387016;28;45228;-85
2022/11/27 03:35:52;;;;;;;;;11.00;9.00;;;;;9.53;68.05;102142.16;2384390;28;46989;-85
2022/11/27 03:37:03;;;;;;;;;8.25;7.00;;;;;9.52;67.78;102141.28;2378840;28;45415;-85
2022/11/27 03:38:13;;;;;;;;;11.25;10.00;;;;;9.52;68.25;102136.03;2384955;28;45431;-85
2022/11/27 03:39:25;;;;;;;;;12.00;9.50;;;;;9.53;67.86;102127.25;2385187;28;45204;-85
2022/11/27 03:40:50;;;;;;;;;12.25;10.75;;;;;9.53;67.96;102124.63;2385081;28;45394;-86
2022/11/27 03:42:21;;;;;;;;;8.00;8.00;;;;;9.53;68.20;102119.38;2385182;28;45321;-86
2022/11/27 03:43:41;;;;;;;;;9.00;7.75;;;;;9.53;68.06;102118.53;2384202;28;46453;-85
2022/11/27 03:45:26;;;;;;;;;8.25;8.25;;;;;9.52;68.18;102117.66;2374867;28;44792;-86
2022/11/27 03:46:51;;;;;;;;;11.00;9.50;;;;;9.51;68.14;102113.28;2372652;28;47893;-86
2022/11/27 03:48:29;;;;;;;;;8.75;6.75;;;;;9.52;67.90;102117.66;2370378;28;45304;-86
2022/11/27 03:50:18;;;;;;;;;10.75;9.25;;;;;9.50;67.93;102115.91;2374143;28;48316;-86
2022/11/27 03:51:33;;;;;;;;;12.25;9.50;;;;;9.52;68.02;102111.53;2370423;28;45394;-85
2022/11/27 03:53:11;;;;;;;;;9.50;9.50;;;;;9.51;67.85;102108.03;2385062;28;46551;-86
2022/11/27 03:54:45;;;;;;;;;12.75;10.00;;;;;9.52;68.18;102114.16;2385139;28;45350;-85
2022/11/27 03:55:58;;;;;;;;;13.50;8.00;;;;;9.52;67.86;102116.78;2385165;28;45223;-86
2022/11/27 03:57:19;;;;;;;;;8.00;8.00;;;;;9.51;67.92;102108.03;2384720;28;45510;-85
2022/11/27 03:58:37;;;;;;;;;11.75;9.50;;;;;9.51;67.80;102107.13;2384310;28;46289;-85
2022/11/27 03:59:51;;;;;;;;;12.25;8.25;;;;;9.50;67.75;102103.66;2375063;28;44607;-86
2022/11/27 04:01:05;;;;;;;;;9.25;7.50;;;;;9.50;67.80;102102.78;2368496;28;46134;-86
2022/11/27 04:02:24;;;;;;;;;10.00;8.25;;;;;9.48;67.66;102104.56;2378349;28;45194;-86
2022/11/27 04:03:35;;;;;;;;;7.75;7.75;;;;;9.47;68.18;102102.81;2384699;28;47258;-85
2022/11/27 04:04:45;;;;;;;;;11.50;8.00;;;;;9.48;68.17;102099.31;2385015;28;45171;-86
2022/11/27 04:05:56;;;;;;;;;10.00;8.50;;;;;9.49;68.06;102098.41;2384805;28;45449;-86
2022/11/27 04:07:14;;;;;;;;;10.00;8.50;;;;;9.49;67.95;102098.41;2375254;28;44665;-86
2022/11/27 04:08:25;;;;;;;;;13.75;10.25;;;;;9.48;67.68;102100.19;2375072;28;45292;-86
2022/11/27 04:09:35;;;;;;;;;9.00;8.00;;;;;9.47;67.90;102103.69;2380900;28;45275;-86
2022/11/27 04:10:46;;;;;;;;;6.00;3.00;;;;;9.48;67.80;102102.81;2384298;28;52361;-85
2022/11/27 04:11:56;;;;;;;;;10.75;8.25;;;;;9.48;67.76;102094.06;2385058;28;45240;-86
2022/11/27 04:13:06;;;;;;;;;7.25;6.75;;;;;9.47;68.08;102097.56;2383792;28;45386;-86
2022/11/27 04:14:17;;;;;;;;;8.00;8.00;;;;;9.47;68.08;102098.44;2384904;28;45146;-86
2022/11/27 04:15:27;;;;;;;;;8.00;6.25;;;;;9.48;68.23;102107.19;2384839;28;45227;-86
2022/11/27 04:16:37;;;;;;;;;10.75;8.50;;;;;9.48;67.95;102099.31;2384593;28;45177;-85
2022/11/27 04:17:48;;;;;;;;;10.75;9.50;;;;;9.48;67.75;102107.19;2384017;28;45463;-86
2022/11/27 04:18:58;;;;;;;;;9.50;8.50;;;;;9.48;68.01;102109.81;2375035;28;45362;-86
2022/11/27 04:20:11;;;;;;;;;5.75;4.75;;;;;9.50;68.18;102108.03;2374802;28;46357;-86
2022/11/27 04:21:21;;;;;;;;;12.75;8.00;;;;;9.50;67.87;102103.66;2380981;28;45421;-86
2022/11/27 04:22:32;;;;;;;;;8.00;8.00;;;;;9.50;67.85;102100.16;2384698;28;45420;-86
2022/11/27 04:23:43;;;;;;;;;11.75;8.00;;;;;9.51;67.98;102104.50;2384997;28;45166;-85
2022/11/27 04:24:54;;;;;;;;;7.50;7.00;;;;;9.51;68.14;102100.16;2373123;28;48419;-86
2022/11/27 04:26:05;;;;;;;;;11.25;9.50;;;;;9.52;68.08;102101.03;2377616;28;45257;-86
2022/11/27 04:27:15;;;;;;;;;7.00;5.25;;;;;9.53;67.96;102102.78;2370203;28;46962;-85
2022/11/27 04:28:26;;;;;;;;;7.25;6.00;;;;;9.53;67.66;102097.53;2377665;28;45181;-85
2022/11/27 04:29:36;;;;;;;;;10.00;7.50;;;;;9.54;67.79;102107.13;2384601;28;47051;-85
2022/11/27 04:30:51;;;;;;;;;10.25;9.50;;;;;9.53;68.06;102098.38;2384704;28;45299;-86
2022/11/27 04:32:02;;;;;;;;;8.25;7.00;;;;;9.55;68.20;102095.75;2384525;28;46576;-85
2022/11/27 04:33:13;;;;;;;;;9.25;7.00;;;;;9.55;67.79;102090.50;2384770;28;45259;-85
2022/11/27 04:34:23;;;;;;;;;10.25;6.00;;;;;9.55;67.77;102090.50;2383947;28;48430;-86
2022/11/27 04:35:33;;;;;;;;;8.25;8.25;;;;;9.54;68.08;102084.38;2381513;28;44605;-85
2022/11/27 04:36:45;;;;;;;;;9.75;8.75;;;;;9.55;68.05;102077.38;2377340;28;45255;-86
2022/11/27 04:37:56;;;;;;;;;7.50;7.00;;;;;9.53;67.99;102071.28;2384196;28;45243;-85
2022/11/27 04:39:07;;;;;;;;;11.00;9.00;;;;;9.52;67.88;102070.41;2374717;28;47986;-86
2022/11/27 04:40:17;;;;;;;;;11.25;8.75;;;;;9.52;68.04;102069.53;2377551;28;45328;-86
2022/11/27 04:41:28;;;;;;;;;9.25;7.75;;;;;9.53;68.01;102073.91;2383797;28;48378;-86
2022/11/27 04:42:38;;;;;;;;;6.75;6.00;;;;;9.52;67.68;102074.78;2383860;28;45270;-86
2022/11/27 04:43:49;;;;;;;;;14.25;9.25;;;;;9.51;67.70;102073.91;2375209;28;49020;-86
2022/11/27 04:44:59;;;;;;;;;8.75;7.25;;;;;9.52;67.70;102075.66;2381435;28;45271;-86
2022/11/27 04:46:09;;;;;;;;;14.00;9.75;;;;;9.53;67.90;102081.78;2384368;28;45389;-86
2022/11/27 04:47:20;;;;;;;;;10.00;8.50;;;;;9.53;67.75;102077.38;2382536;28;45343;-86
2022/11/27 04:48:30;;;;;;;;;7.50;7.00;;;;;9.51;68.00;102075.66;2383186;28;46197;-86
2022/11/27 04:49:40;;;;;;;;;8.25;6.50;;;;;9.50;67.92;102073.91;2383845;28;45528;-86
2022/11/27 04:50:53;;;;;;;;;11.25;8.00;;;;;9.51;68.32;102073.03;2384533;28;46431;-86
2022/11/27 04:52:04;;;;;;;;;13.00;9.50;;;;;9.50;68.14;102063.44;2384736;28;45238;-86
2022/11/27 04:53:14;;;;;;;;;9.50;8.00;;;;;9.50;68.13;102058.19;2384423;28;46231;-85
2022/11/27 04:54:24;;;;;;;;;7.75;7.00;;;;;9.50;68.13;102056.44;2383927;28;45407;-86
2022/11/27 04:55:35;;;;;;;;;10.50;8.50;;;;;9.51;68.21;102052.03;2383996;28;45245;-86
2022/11/27 04:56:45;;;;;;;;;9.00;8.75;;;;;9.52;68.21;102059.03;2383382;28;44819;-86
2022/11/27 04:57:55;;;;;;;;;8.25;7.25;;;;;9.52;68.16;102053.78;2374380;28;46966;-85
2022/11/27 04:59:06;;;;;;;;;7.00;7.00;;;;;9.53;68.31;102052.91;2365380;29;44581;-86
2022/11/27 05:00:17;;;;;;;;;7.00;7.00;;;;;9.51;68.14;102044.16;2368920;28;47999;-86
2022/11/27 05:01:27;;;;;;;;;10.50;9.50;;;;;9.52;68.10;102048.53;2367715;28;45280;-86
2022/11/27 05:02:38;;;;;;;;;9.75;8.75;;;;;9.50;68.09;102045.94;2377349;28;46153;-86
2022/11/27 05:03:48;;;;;;;;;6.25;5.75;;;;;9.50;68.08;102042.44;2384500;28;45499;-86
2022/11/27 05:04:59;;;;;;;;;9.25;8.25;;;;;9.51;67.96;102052.03;2384359;28;46285;-86
2022/11/27 05:06:09;;;;;;;;;8.50;8.50;;;;;9.49;68.06;102044.19;2384558;28;45151;-86
2022/11/27 05:07:19;;;;;;;;;8.00;8.00;;;;;9.51;67.95;102052.03;2384311;28;45357;-86
2022/11/27 05:08:31;;;;;;;;;8.25;6.75;;;;;9.52;68.06;102051.16;2383760;28;45433;-86
2022/11/27 05:09:42;;;;;;;;;9.75;7.00;;;;;9.50;67.91;102050.31;2374247;28;47446;-85
2022/11/27 05:11:04;;;;;;;;;9.00;6.50;;;;;9.50;67.94;102051.19;2374683;28;45246;-86
2022/11/27 05:12:15;;;;;;;;;9.50;8.75;;;;;9.50;68.23;102050.31;2378568;28;45409;-85
2022/11/27 05:13:25;;;;;;;;;11.75;8.50;;;;;9.50;68.15;102050.31;2375910;28;44711;-86
2022/11/27 05:14:36;;;;;;;;;5.50;5.50;;;;;9.52;68.20;102053.78;2373355;28;47270;-86
2022/11/27 05:15:46;;;;;;;;;10.75;8.50;;;;;9.53;68.07;102050.28;2370650;28;46056;-85
2022/11/27 05:16:58;;;;;;;;;5.75;5.75;;;;;9.54;67.83;102050.25;2384036;28;46444;-86
2022/11/27 05:18:08;;;;;;;;;10.00;7.25;;;;;9.55;67.71;102044.16;2384427;28;45176;-86
2022/11/27 05:19:21;;;;;;;;;10.00;8.25;;;;;9.54;67.95;102023.13;2383380;28;45421;-85
2022/11/27 05:20:31;;;;;;;;;8.50;8.50;;;;;9.53;67.64;102026.66;2383897;28;45350;-86
2022/11/27 05:21:42;;;;;;;;;8.25;7.00;;;;;9.53;67.77;102031.91;2382808;28;53682;-85
2022/11/27 05:22:53;;;;;;;;;9.00;7.00;;;;;9.52;67.98;102028.41;2374332;28;45506;-85
2022/11/27 05:24:04;;;;;;;;;6.00;4.75;;;;;9.52;67.92;102020.53;2377040;28;45349;-86
2022/11/27 05:25:14;;;;;;;;;9.75;8.25;;;;;9.52;67.96;102023.16;2383345;28;44561;-85
2022/11/27 05:26:24;;;;;;;;;8.25;7.00;;;;;9.52;68.18;102022.28;2383797;28;46154;-86
2022/11/27 05:27:35;;;;;;;;;9.00;7.50;;;;;9.52;67.84;102017.03;2384279;28;45143;-86
2022/11/27 05:28:45;;;;;;;;;9.00;6.25;;;;;9.52;67.96;102015.28;2384114;28;45273;-85
2022/11/27 05:29:55;;;;;;;;;8.25;8.00;;;;;9.51;68.09;102010.91;2384280;28;45224;-86
2022/11/27 05:31:05;;;;;;;;;8.50;7.00;;;;;9.52;68.00;102017.91;2374070;28;46043;-86
2022/11/27 05:32:16;;;;;;;;;12.00;8.00;;;;;9.51;67.83;102015.28;2365203;29;45253;-86
2022/11/27 05:33:26;;;;;;;;;9.00;8.00;;;;;9.53;67.92;102026.66;2376692;28;46355;-86
2022/11/27 05:34:36;;;;;;;;;9.00;7.75;;;;;9.53;68.04;102019.63;2384315;28;45165;-86
2022/11/27 05:35:47;;;;;;;;;10.50;9.00;;;;;9.51;67.70;102031.91;2384310;28;45427;-86
2022/11/27 05:36:57;;;;;;;;;10.00;7.25;;;;;9.50;67.75;102026.69;2374428;28;44687;-85
2022/11/27 05:38:08;;;;;;;;;6.75;6.75;;;;;9.49;68.21;102027.53;2376994;28;45303;-85
2022/11/27 05:39:18;;;;;;;;;8.25;7.75;;;;;9.49;67.72;102024.91;2383664;28;45372;-85
2022/11/27 05:40:29;;;;;;;;;9.00;7.00;;;;;9.49;68.04;102019.69;2374274;28;48162;-86
2022/11/27 05:41:41;;;;;;;;;7.75;6.75;;;;;9.47;68.18;102030.19;2377236;28;45368;-86
2022/11/27 05:42:52;;;;;;;;;10.75;9.00;;;;;9.47;68.19;102030.19;2382949;28;46933;-86
2022/11/27 05:44:03;;;;;;;;;9.00;8.00;;;;;9.47;68.20;102019.69;2383790;28;44834;-86
2022/11/27 05:45:13;;;;;;;;;11.25;8.50;;;;;9.49;68.10;102025.81;2383343;28;47618;-86